Etusivu
METAR-TAF:

METAR-TAF

Lentoasemat :

Kindersley, Saskatchewan, Kanada

Leveyspiiri: 51-31N, Pituuspiiri: 109-10W, korkeus merenpinnasta: 694 m

Tämänhetkinen sää

Tämä raportti tehtiin 59 minuuttia sitten, kello 03.00 UTC
Tuuli 25 kn etelästä/lounaasta
Lämpötila 15°C
Kosteus 29%
Ilmanpaine 1006 hPa
Näkyvyys: 24.1 km
Hajonneita pilviä 16000 ft:n korkeudessa
Pilvistä 22000 ft:n korkeudessa

METAR: CYKY 230300Z 20025KT 15SM BKN160 OVC220 15/M03 A2970 RMK AC5CI3 SLP063 DENSITY ALT 3100FT

Aika: 21:59 (03:59 UTC)


TAF: puuttuu

Säähavainnot ja -ennusteet yli 4000 lentoasemalta (METAR- ja TAF-raportit).

Käytössä olevat sääasemat on merkitty karttaan keltaisilla ja punaisilla pisteillä.

Aseta hiiri pisteen päälle nähdäksesi sääaseman nimen.

Klikkaa sitten nähdäksesi säähavainnot ja -ennusteet.

Kartan vaihtaminen: klikkaa mustalla rastilla varustettuja vihreitä pisteitä, niin voit zoomata sisään; viivalla varustettua vihreää pistettä, niin voit zoomata ulos tai vihreitä nuolia, niin pääset viereisille kartoille.


METAR-TAF: